METAR Data
IDs: Format: Raw Decoded Include TAF

Data at: 0058 UTC 24 May 2019

KCWF 232350Z 12010G18KT 10SM SCT031 29/23 A3005
KCWF 232250Z 12014G20KT 10SM SCT050 30/22 A3006
KCWF 232155Z 11013G22KT 10SM SCT033 BKN040 31/23 A3006
KCWF 232045Z 13014G20KT 10SM SCT034 BKN041 31/23 A3007
KCWF 231950Z 13012G19KT 10SM SCT032 BKN038 31/23 A3009
KCWF 231850Z 13013G17KT 10SM BKN031 BKN037 30/22 A3009
KCWF 231745Z 14016G20KT 10SM BKN031 BKN037 31/23 A3010
KCWF 231645Z 13014G20KT 10SM BKN031 BKN037 30/23 A3010
KCWF 231555Z 14015G20KT 10SM BKN028 29/23 A3009
KCWF 231455Z 15011G17KT 10SM BKN023 BKN030 27/23 A3009
KCWF 231350Z 15014G19KT 10SM BKN016 BKN022 27/24 A3007
KCWF 231250Z 14006KT 10SM SCT020 26/24 A3006
KCWF 231155Z 12004KT 10SM BKN024 24/23 A3004
KCWF 231100Z 14010KT 10SM SCT017 BKN024 25/23 A3003
KCWF 231035Z 14008KT 10SM SCT019 SCT025 25/23 A3002 RMK AO2 T02460231 PWINO
KCWF 231015Z 14009KT 10SM SCT015 SCT021 SCT028 25/23 A3002 RMK AO2 T02460233 PWINO
KCWF 230955Z 14007KT 10SM BKN016 BKN022 OVC030 25/24 A3002 RMK AO2 T02500236 PWINO
KCWF 230935Z 14008KT 10SM BKN016 BKN022 OVC028 25/24 A3002 RMK AO2 T02520237 PWINO
KCWF 230915Z 14006KT 10SM BKN016 OVC028 25/24 A3001 RMK AO2 T02530237 PWINO
KCWF 230855Z 14006KT 10SM BKN016 OVC020 25/24 A3001 RMK AO2 T02520236 PWINO
KCWF 230835Z 14006KT 10SM BKN018 OVC025 25/23 A3001 RMK AO2 T02510235 PWINO
KCWF 230815Z 15007G14KT 10SM BKN018 BKN023 BKN028 25/23 A3000 RMK AO2 T02510235 PWINO
KCWF 230755Z 15011G17KT 10SM BKN016 BKN028 25/23 A3000 RMK AO2 T02530235 PWINO
KCWF 230735Z 15009G16KT 10SM BKN016 BKN026 25/23 A3000 RMK AO2 T02550235 PWINO
KCWF 230715Z 14011G17KT 10SM SCT018 BKN025 25/23 A3000 RMK AO2 T02550235 PWINO
KCWF 230655Z 14013G16KT 10SM SCT021 SCT027 25/23 A3000 RMK AO2 T02530233 PWINO
KCWF 230635Z 15010G16KT 10SM SCT019 SCT027 25/23 A3000 RMK AO2 T02530233 PWINO
KCWF 230615Z 14013G19KT 10SM SCT019 SCT025 25/23 A3000 RMK AO2 T02550234 PWINO
KCWF 230555Z 15009G17KT 10SM BKN019 BKN024 25/24 A3000 RMK AO2 T02550235 10281 20255 403110246 PWINO
KCWF 230535Z 14010G19KT 10SM OVC021 26/23 A3000 RMK AO2 T02570235 PWINO
KCWF 230515Z 14012G20KT 10SM BKN021 26/23 A3000 RMK AO2 T02580233 PWINO
KCWF 230455Z 14012G19KT 10SM BKN021 26/23 A3000 RMK AO2 T02600235 PWINO
KCWF 230435Z 14011G18KT 10SM OVC019 26/24 A3000 RMK AO2 T02610237 PWINO
KCWF 230415Z 13012G16KT 10SM OVC019 26/24 A2999 RMK AO2 T02610237 PWINO
KCWF 230355Z 13013G19KT 10SM BKN019 BKN026 26/24 A2999 RMK AO2 T02620239 PWINO
KCWF 230335Z 13014G21KT 10SM BKN021 BKN028 26/24 A2999 RMK AO2 T02620238 PWINO
KCWF 230315Z 14017KT 10SM BKN021 OVC030 26/24 A2998 RMK AO2 T02630237 PWINO
KCWF 230250Z 13013G20KT 10SM BKN021 26/24 A2997 RMK LAST
KCWF 222355Z 15015G18KT 10SM BKN030 28/24 A2994
KCWF 222245Z 15013G21KT 10SM BKN030 30/23 A2994
KCWF 222155Z 16016G22KT 10SM BKN030 30/24 A2994
KCWF 222045Z 15017G28KT 10SM BKN030 30/23 A2994
KCWF 221955Z 13014G22KT 10SM BKN024 30/24 A2994
KCWF 221850Z 13014G22KT 10SM BKN024 30/24 A2994
KCWF 221755Z 15016G19KT 10SM BKN026 30/24 A2995
KCWF 221650Z 15015G21KT 10SM BKN024 OVC032 29/24 A2994
KCWF 221555Z 17013G19KT 10SM BKN024 BKN033 29/23 A2993
KCWF 221455Z 14018G28KT 10SM BKN022 BKN025 29/23 A2992
KCWF 221350Z 14018G28KT 10SM BKN017 BKN023 28/23 A2989